Feltwell, United Kingdom
Current Conditions -  °F | °C
As of 12:58 AM on Wednesday 22 Oct 2014 (Local Time) from EGUL Reporting Station
Clear Clear  
Wind Chill: 35°   Ceiling: Unl
Heat Index: 42°   Visibility: 6mi
Dew Point: 42°   Wind: 15mph
Humidity: 100%   Direction: 280°W
Pressure: 30.08"   Gusts: NA
Location:  52.49°N, 0.52°E
Report Text: EGUL 212358Z AUTO 28013KT 9999 CLR 06/06 A3008 RMK AO2 SLP190 T00580058 10082 20057 401400057 52038 $
Loading
Personal Weather Stations






























Interactive Weather Map
Tropical Storm Tracking
New forecast layout! Learn more

10-Day Weather Forecast

Advertisements
Track Severe Weather on mobile